Information Last Ob Photographs Calibration Meteogram Network Table Neighbors Monthly Summaries Observation History Wind Roses Custom Wind Roses Data Calendar Satellite Cloud Product Download

Satellite Cloud Product

NESDIS produces a Satellite Cloud Product (SCP) that supplements the ASOS ceilometer readings. This page merges the SCP data with the METAR observations for a given UTC date. Cloud level values are presented in feet above ground level. ECA represents estimated cloud amount expressed in percentage. An IEM Web Service provided the following JSON dataset for this page. Data is available for some sites back to 1993.

Year: Month: Day: Time Order:

 

SCP Valid UTCSatellite East SounderSatellite West SounderASOS METAR Report
Mid CloudsHigh CloudsLevels [ft]ECA [%]Mid CloudsHigh CloudsLevels [ft]ECA [%]Levels ftMETAR
0050ZCLR-0CLR-0 KFSW 290055Z AUTO 00000KT 10SM M02/M18 A3034 RMK AO2
0150ZCLR-0CLR-0 KFSW 290155Z AUTO 00000KT 10SM M03/M18 A3035 RMK AO2
0250ZCLR-0CLR-0 KFSW 290255Z AUTO 00000KT 10SM M04/M18 A3037 RMK AO2
0350ZSCT13000 - 140003SCT13000 - 1400011 KFSW 290355Z AUTO 00000KT 10SM M04/M17 A3039 RMK AO2
0450ZSCT14000 - 140000SCT13000 - 1400013 KFSW 290455Z AUTO 22003KT 10SM M04/M15 A3040 RMK AO2
0550ZSCT13000 - 150000SCT13000 - 150008 KFSW 290555Z AUTO 21004KT 10SM M04/M15 A3040 RMK AO2
0650ZSCT13000 - 140002SCT13000 - 150006 KFSW 290655Z AUTO 20004KT 10SM M04/M13 A3041 RMK AO2
0750ZSCT13000 - 130001SCT13000 - 140002 KFSW 290755Z AUTO 20003KT 10SM M05/M13 A3039 RMK AO2
0850ZSCT13000 - 140001SCT13000 - 140001 KFSW 290855Z AUTO 00000KT 10SM M05/M11 A3037 RMK AO2